createdAt,value
2023-02-20T00:02:15.965Z,4.10
2023-02-20T00:04:45.794Z,3.75
2023-02-20T00:07:15.674Z,4.10
2023-02-20T00:09:45.468Z,3.63
2023-02-20T00:12:15.206Z,4.03
2023-02-20T00:14:44.987Z,4.18
2023-02-20T00:17:17.310Z,3.85
2023-02-20T00:19:47.979Z,3.88
2023-02-20T00:22:17.685Z,3.70
2023-02-20T00:24:47.694Z,4.25
2023-02-20T00:27:17.873Z,3.67
2023-02-20T00:29:48.344Z,3.70
2023-02-20T00:32:20.707Z,3.88
2023-02-20T00:34:50.507Z,3.58
2023-02-20T00:37:20.257Z,4.05
2023-02-20T00:39:50.055Z,3.90
2023-02-20T00:42:19.855Z,3.70
2023-02-20T00:44:49.688Z,4.05
2023-02-20T00:47:22.027Z,3.72
2023-02-20T00:49:51.833Z,4.10
2023-02-20T00:52:21.603Z,4.13
2023-02-20T00:54:51.381Z,3.72
2023-02-20T00:57:21.309Z,4.13
2023-02-20T00:59:51.658Z,4.22
2023-02-20T01:02:24.126Z,4.10
2023-02-20T01:04:53.993Z,3.75
2023-02-20T01:07:23.700Z,4.10
2023-02-20T01:09:53.558Z,3.90
2023-02-20T01:12:23.301Z,4.05
2023-02-20T01:14:53.035Z,4.10
2023-02-20T01:17:25.343Z,5.00
2023-02-20T01:19:55.970Z,4.25
2023-02-20T01:22:25.716Z,4.10
2023-02-20T01:24:55.608Z,4.60
2023-02-20T01:27:25.425Z,4.18
2023-02-20T01:29:55.200Z,4.20
2023-02-20T01:32:27.638Z,5.13
2023-02-20T01:34:57.456Z,4.07
2023-02-20T01:37:27.174Z,4.05
2023-02-20T01:39:56.995Z,3.90
2023-02-20T01:42:28.623Z,3.78
2023-02-20T01:44:58.690Z,4.10
2023-02-20T01:47:31.031Z,4.05
2023-02-20T01:50:07.101Z,4.00
2023-02-20T01:52:39.179Z,4.03
2023-02-20T01:55:11.956Z,4.28
2023-02-20T01:57:45.554Z,3.78
2023-02-20T02:00:20.142Z,4.20
2023-02-20T02:05:26.202Z,4.30
2023-02-20T02:07:56.291Z,4.00
2023-02-20T02:10:29.653Z,4.40
2023-02-20T02:12:59.443Z,4.63
2023-02-20T02:15:29.279Z,4.13
2023-02-20T02:18:17.266Z,4.50
2023-02-20T02:21:20.270Z,4.05
2023-02-20T02:24:22.955Z,4.15
2023-02-20T02:27:20.364Z,4.78
2023-02-20T02:30:20.695Z,4.50
2023-02-20T02:33:26.285Z,4.32
2023-02-20T02:36:19.308Z,4.63
2023-02-20T02:38:55.387Z,5.20
2023-02-20T02:41:32.123Z,4.97
2023-02-20T02:44:05.565Z,5.32
2023-02-20T02:46:45.142Z,5.10
2023-02-20T02:49:22.603Z,4.90
2023-02-20T02:51:57.111Z,5.50
2023-02-20T02:57:21.937Z,5.10
2023-02-20T02:59:55.987Z,5.03
2023-02-20T03:02:27.733Z,5.18
2023-02-20T03:04:58.352Z,5.05
2023-02-20T03:07:33.162Z,5.03
2023-02-20T03:10:07.959Z,5.28
2023-02-20T03:12:41.122Z,5.82
2023-02-20T03:15:28.798Z,5.45
2023-02-20T03:18:06.051Z,4.93
2023-02-20T03:20:35.867Z,5.20
2023-02-20T03:23:10.735Z,4.65
2023-02-20T03:25:45.072Z,5.07
2023-02-20T03:30:53.304Z,4.50
2023-02-20T03:33:40.472Z,5.32
2023-02-20T03:36:27.658Z,5.38
2023-02-20T03:39:17.686Z,4.97
2023-02-20T03:42:02.909Z,4.70
2023-02-20T03:44:34.880Z,5.82
2023-02-20T03:47:06.234Z,4.50
2023-02-20T03:49:40.025Z,4.65
2023-02-20T03:52:10.526Z,4.32
2023-02-20T03:54:43.683Z,4.68
2023-02-20T03:57:15.913Z,4.82
2023-02-20T03:59:51.093Z,4.40
2023-02-20T04:02:25.003Z,3.78
2023-02-20T04:04:57.529Z,4.03
2023-02-20T04:07:30.470Z,3.92
2023-02-20T04:10:07.213Z,3.88
2023-02-20T04:12:41.566Z,3.75
2023-02-20T04:15:12.680Z,4.05
2023-02-20T04:17:47.293Z,3.42
2023-02-20T04:20:17.526Z,3.15
2023-02-20T04:22:51.435Z,3.30
2023-02-20T04:25:34.591Z,3.50
2023-02-20T04:28:05.361Z,3.72
2023-02-20T04:30:35.514Z,3.63
2023-02-20T04:33:05.374Z,3.80
2023-02-20T04:35:35.420Z,4.13
2023-02-20T04:38:05.306Z,3.78
2023-02-20T04:40:37.608Z,4.03
2023-02-20T04:43:07.474Z,3.53
2023-02-20T04:45:37.347Z,4.47
2023-02-20T04:48:07.814Z,3.92
2023-02-20T04:50:38.050Z,4.03
2023-02-20T04:53:07.812Z,4.47
2023-02-20T04:55:40.138Z,4.60
2023-02-20T04:58:10.036Z,3.78
2023-02-20T05:00:39.816Z,4.32
2023-02-20T05:03:09.703Z,4.20
2023-02-20T05:05:39.456Z,4.25
2023-02-20T05:08:10.734Z,4.05
2023-02-20T05:10:43.142Z,4.05
2023-02-20T05:13:12.863Z,4.60
2023-02-20T05:15:42.606Z,5.28
2023-02-20T05:18:12.459Z,4.50
2023-02-20T05:20:54.703Z,4.53
2023-02-20T05:23:24.549Z,4.53
2023-02-20T05:25:56.870Z,3.78
2023-02-20T05:28:26.619Z,4.30
2023-02-20T05:30:56.541Z,4.28
2023-02-20T05:33:26.374Z,4.97
2023-02-20T05:35:56.151Z,4.70
2023-02-20T05:38:25.965Z,5.07
2023-02-20T05:40:58.537Z,4.63
2023-02-20T05:43:28.351Z,4.90
2023-02-20T05:45:58.149Z,4.38
2023-02-20T05:48:27.959Z,4.68
2023-02-20T05:50:57.709Z,5.15
2023-02-20T05:53:29.938Z,5.25
2023-02-20T05:56:02.446Z,4.95
2023-02-20T05:58:32.154Z,5.28
2023-02-20T06:01:01.953Z,5.35
2023-02-20T06:03:31.715Z,5.43
2023-02-20T06:06:01.491Z,5.03
2023-02-20T06:08:31.228Z,4.88
2023-02-20T06:11:03.556Z,5.50
2023-02-20T06:13:33.271Z,5.05
2023-02-20T06:16:03.059Z,4.78
2023-02-20T06:18:32.826Z,5.07
2023-02-20T06:21:02.601Z,5.80
2023-02-20T06:23:32.366Z,5.50
2023-02-20T06:26:04.735Z,5.47
2023-02-20T06:28:34.502Z,6.07
2023-02-20T06:31:04.458Z,6.20
2023-02-20T06:33:34.352Z,5.93
2023-02-20T06:36:04.096Z,5.72
2023-02-20T06:38:34.030Z,6.18
2023-02-20T06:41:06.641Z,5.40
2023-02-20T06:43:36.394Z,5.10
2023-02-20T06:46:06.342Z,5.85
2023-02-20T06:48:36.142Z,6.03
2023-02-20T06:51:06.143Z,5.43
2023-02-20T06:53:38.676Z,6.25
2023-02-20T06:56:13.904Z,5.80
2023-02-20T06:58:44.199Z,5.32
2023-02-20T07:01:14.027Z,5.78
2023-02-20T07:03:45.014Z,5.45
2023-02-20T07:06:14.863Z,5.72
2023-02-20T07:08:44.674Z,5.93
2023-02-20T07:11:19.045Z,6.07
2023-02-20T07:13:48.899Z,6.30
2023-02-20T07:16:19.087Z,5.55
2023-02-20T07:18:48.931Z,5.55
2023-02-20T07:21:18.815Z,5.65
2023-02-20T07:23:48.785Z,5.63
2023-02-20T07:26:27.004Z,6.25
2023-02-20T07:28:58.502Z,6.00
2023-02-20T07:31:29.136Z,6.50
2023-02-20T07:33:59.121Z,5.13
2023-02-20T07:36:29.159Z,5.32
2023-02-20T07:38:59.964Z,5.43
2023-02-20T07:41:34.998Z,5.65
2023-02-20T07:44:04.788Z,5.72
2023-02-20T07:46:35.142Z,4.95
2023-02-20T07:49:05.731Z,4.90
2023-02-20T07:51:35.717Z,5.20
2023-02-20T07:54:06.666Z,4.80
2023-02-20T07:56:39.095Z,4.85
2023-02-20T07:59:10.081Z,4.55
2023-02-20T08:01:40.674Z,4.88
2023-02-20T08:04:10.499Z,4.55
2023-02-20T08:06:40.649Z,4.90
2023-02-20T08:09:10.623Z,3.92
2023-02-20T08:11:43.035Z,4.35
2023-02-20T08:14:13.153Z,4.40
2023-02-20T08:16:43.056Z,4.40
2023-02-20T08:19:12.949Z,6.00
2023-02-20T08:21:42.727Z,3.80
2023-02-20T08:24:12.491Z,4.13
2023-02-20T08:26:49.397Z,4.20
2023-02-20T08:29:19.690Z,3.88
2023-02-20T08:31:49.828Z,3.58
2023-02-20T08:34:19.645Z,3.78
2023-02-20T08:36:49.399Z,3.65
2023-02-20T08:39:19.178Z,3.75
2023-02-20T08:41:51.528Z,3.85
2023-02-20T08:44:21.295Z,3.50
2023-02-20T08:46:51.886Z,3.45
2023-02-20T08:49:23.533Z,3.88
2023-02-20T08:51:58.263Z,3.58
2023-02-20T08:54:27.980Z,3.38
2023-02-20T08:57:00.705Z,4.00
2023-02-20T08:59:35.074Z,3.72
2023-02-20T09:02:04.887Z,3.50
2023-02-20T09:04:34.820Z,3.55
2023-02-20T09:07:04.661Z,3.20
2023-02-20T09:09:34.473Z,3.60
2023-02-20T09:12:07.341Z,3.25
2023-02-20T09:14:37.244Z,2.80
2023-02-20T09:17:07.969Z,2.90
2023-02-20T09:19:38.162Z,4.20
2023-02-20T09:22:08.015Z,2.95
2023-02-20T09:24:38.264Z,2.70
2023-02-20T09:27:10.596Z,3.00
2023-02-20T09:29:42.916Z,2.63
2023-02-20T09:32:13.236Z,2.65
2023-02-20T09:34:45.040Z,2.78
2023-02-20T09:37:14.789Z,2.92
2023-02-20T09:39:44.510Z,2.45
2023-02-20T09:42:29.357Z,2.50
2023-02-20T09:47:46.766Z,2.20
2023-02-20T09:50:19.511Z,2.80
2023-02-20T09:52:58.846Z,2.72
2023-02-20T09:55:40.740Z,2.50
2023-02-20T09:58:23.132Z,3.13
2023-02-20T10:00:53.955Z,2.80
2023-02-20T10:03:30.714Z,2.88
2023-02-20T10:06:00.640Z,3.97
2023-02-20T10:08:30.401Z,2.60
2023-02-20T10:11:06.118Z,2.97
2023-02-20T10:13:51.256Z,2.40
2023-02-20T10:16:35.315Z,2.67
2023-02-20T10:19:16.619Z,2.20
2023-02-20T10:21:55.646Z,2.50
2023-02-20T10:24:35.790Z,3.47
2023-02-20T10:27:21.535Z,2.33
2023-02-20T10:29:57.743Z,2.70
2023-02-20T10:32:32.828Z,3.35
2023-02-20T10:35:08.166Z,3.15
2023-02-20T10:37:47.727Z,2.83
2023-02-20T10:40:24.599Z,2.42
2023-02-20T10:43:01.857Z,3.00
2023-02-20T10:45:45.431Z,2.88
2023-02-20T10:48:17.852Z,2.30
2023-02-20T10:50:52.969Z,2.40
2023-02-20T10:53:31.995Z,2.85
2023-02-20T10:56:08.782Z,2.47
2023-02-20T10:58:43.458Z,2.22
2023-02-20T11:01:21.290Z,2.65
2023-02-20T11:03:57.426Z,2.28
2023-02-20T11:06:32.594Z,2.65
2023-02-20T11:09:02.803Z,2.60
2023-02-20T11:11:35.788Z,2.22
2023-02-20T11:14:14.342Z,2.08
2023-02-20T11:16:51.067Z,2.30
2023-02-20T11:19:27.431Z,2.50
2023-02-20T11:21:57.790Z,2.10
2023-02-20T11:24:33.754Z,2.25
2023-02-20T11:27:08.310Z,2.35
2023-02-20T11:29:42.600Z,2.22
2023-02-20T11:32:41.269Z,2.17
2023-02-20T11:35:32.937Z,2.10
2023-02-20T11:38:35.462Z,2.15
2023-02-20T11:41:24.237Z,1.80
2023-02-20T11:44:23.048Z,1.90
2023-02-20T11:47:13.979Z,1.80
2023-02-20T11:49:46.377Z,2.00
2023-02-20T11:52:20.819Z,1.60
2023-02-20T11:57:28.261Z,1.45
2023-02-20T12:00:15.144Z,1.33
2023-02-20T12:02:52.986Z,1.63
2023-02-20T12:05:40.371Z,1.77
2023-02-20T12:08:33.080Z,1.45
2023-02-20T12:11:06.339Z,1.60
2023-02-20T12:13:40.905Z,1.50
2023-02-20T12:16:33.148Z,1.40
2023-02-20T12:19:11.862Z,1.70
2023-02-20T12:21:54.238Z,2.00
2023-02-20T12:24:40.926Z,2.42
2023-02-20T12:27:29.240Z,1.73
2023-02-20T12:30:10.259Z,1.98
2023-02-20T12:32:53.754Z,1.85
2023-02-20T12:35:32.336Z,1.95
2023-02-20T12:38:27.195Z,1.40
2023-02-20T12:41:16.224Z,1.50
2023-02-20T12:44:02.226Z,1.33
2023-02-20T12:46:41.809Z,1.45
2023-02-20T12:49:40.025Z,2.20
2023-02-20T12:52:28.437Z,1.67
2023-02-20T12:55:08.247Z,1.40
2023-02-20T12:57:45.788Z,1.55
2023-02-20T13:00:33.524Z,1.38
2023-02-20T13:03:11.295Z,2.08
2023-02-20T13:05:45.310Z,1.25
2023-02-20T13:08:18.570Z,1.00
2023-02-20T13:10:58.540Z,1.02
2023-02-20T13:13:34.682Z,1.48
2023-02-20T13:16:09.490Z,1.60
2023-02-20T13:18:46.641Z,1.50
2023-02-20T13:21:18.877Z,1.48
2023-02-20T13:23:50.236Z,1.35
2023-02-20T13:26:52.676Z,1.30
2023-02-20T13:29:26.927Z,1.13
2023-02-20T13:31:59.958Z,1.30
2023-02-20T13:34:37.290Z,1.02
2023-02-20T13:37:28.196Z,1.05
2023-02-20T13:39:57.959Z,1.00
2023-02-20T13:42:39.555Z,1.40
2023-02-20T13:45:41.465Z,1.20
2023-02-20T13:48:21.901Z,0.88
2023-02-20T13:50:51.662Z,1.10
2023-02-20T13:53:21.462Z,1.00
2023-02-20T13:55:51.306Z,0.70
2023-02-20T13:58:24.864Z,0.90
2023-02-20T14:00:57.509Z,0.90
2023-02-20T14:03:30.559Z,1.55
2023-02-20T14:06:12.784Z,1.10
2023-02-20T14:08:44.196Z,0.98
2023-02-20T14:11:17.337Z,0.98
2023-02-20T14:13:57.933Z,1.35
2023-02-20T14:16:31.801Z,1.33
2023-02-20T14:19:03.374Z,1.42
2023-02-20T14:21:33.663Z,1.17
2023-02-20T14:24:19.290Z,1.13
2023-02-20T14:26:51.703Z,1.08
2023-02-20T14:29:29.023Z,1.02
2023-02-20T14:32:01.102Z,1.17
2023-02-20T14:34:40.471Z,1.42
2023-02-20T14:37:16.614Z,1.00
2023-02-20T14:39:54.789Z,0.95
2023-02-20T14:42:25.981Z,1.00
2023-02-20T14:45:03.269Z,1.13
2023-02-20T14:47:35.643Z,1.00
2023-02-20T14:50:18.646Z,1.10
2023-02-20T14:52:48.708Z,1.10
2023-02-20T14:55:21.061Z,1.92
2023-02-20T14:57:52.504Z,1.50
2023-02-20T15:00:37.453Z,1.85
2023-02-20T15:03:28.005Z,1.30
2023-02-20T15:06:03.789Z,1.30
2023-02-20T15:08:36.139Z,1.48
2023-02-20T15:11:11.487Z,1.50
2023-02-20T15:13:44.376Z,0.85
2023-02-20T15:16:24.540Z,1.25
2023-02-20T15:18:55.148Z,1.08
2023-02-20T15:21:40.719Z,1.60
2023-02-20T15:24:38.597Z,1.42
2023-02-20T15:27:13.578Z,1.50
2023-02-20T15:29:44.297Z,1.92
2023-02-20T15:32:26.117Z,1.60
2023-02-20T15:34:58.388Z,1.20
2023-02-20T15:37:38.501Z,1.30
2023-02-20T15:42:50.289Z,1.45
2023-02-20T15:45:20.305Z,1.50
2023-02-20T15:47:52.693Z,1.30
2023-02-20T15:50:22.695Z,1.48
2023-02-20T15:52:53.146Z,1.70
2023-02-20T15:55:25.677Z,1.70
2023-02-20T15:57:58.717Z,1.30
2023-02-20T16:00:32.833Z,1.55
2023-02-20T16:03:05.317Z,1.50
2023-02-20T16:05:35.058Z,1.50
2023-02-20T16:08:04.814Z,2.13
2023-02-20T16:10:34.595Z,1.60
2023-02-20T16:13:04.880Z,2.05
2023-02-20T16:15:34.622Z,2.15
2023-02-20T16:18:07.240Z,1.60
2023-02-20T16:20:36.995Z,1.90
2023-02-20T16:23:08.594Z,1.77
2023-02-20T16:25:38.422Z,1.48
2023-02-20T16:28:09.176Z,1.80
2023-02-20T16:30:41.654Z,1.70
2023-02-20T16:33:21.224Z,1.73
2023-02-20T16:35:55.859Z,1.15
2023-02-20T16:38:26.956Z,1.63
2023-02-20T16:40:58.864Z,1.77
2023-02-20T16:43:28.622Z,1.55
2023-02-20T16:45:58.447Z,1.70
2023-02-20T16:48:30.821Z,2.00
2023-02-20T16:51:00.622Z,1.83
2023-02-20T16:53:32.331Z,1.90
2023-02-20T16:56:02.109Z,1.98
2023-02-20T16:58:32.383Z,2.17
2023-02-20T17:01:02.142Z,1.70
2023-02-20T17:03:34.780Z,2.38
2023-02-20T17:06:04.682Z,2.00
2023-02-20T17:08:34.749Z,2.25
2023-02-20T17:11:04.543Z,2.63
2023-02-20T17:13:34.317Z,1.80
2023-02-20T17:16:04.172Z,2.25
2023-02-20T17:18:36.491Z,2.08
2023-02-20T17:21:06.722Z,2.20
2023-02-20T17:23:36.452Z,2.33
2023-02-20T17:26:06.670Z,2.60
2023-02-20T17:28:36.507Z,2.75
2023-02-20T17:31:06.371Z,3.08
2023-02-20T17:33:40.798Z,4.53
2023-02-20T17:38:44.724Z,3.65
2023-02-20T17:41:14.807Z,3.28
2023-02-20T17:43:44.747Z,4.40
2023-02-20T17:46:14.769Z,5.05
2023-02-20T17:48:47.954Z,4.35
2023-02-20T17:51:22.119Z,4.30
2023-02-20T17:53:51.935Z,4.60
2023-02-20T17:56:22.561Z,4.75
2023-02-20T17:58:52.470Z,3.78
2023-02-20T18:01:27.155Z,3.85
2023-02-20T18:03:59.705Z,3.83
2023-02-20T18:06:29.569Z,3.33
2023-02-20T18:08:59.302Z,3.42
2023-02-20T18:11:29.912Z,3.38
2023-02-20T18:14:00.160Z,3.30
2023-02-20T18:16:30.783Z,3.72
2023-02-20T18:19:03.469Z,5.40
2023-02-20T18:21:34.313Z,6.50
2023-02-20T18:24:04.832Z,6.70
2023-02-20T18:26:34.618Z,7.10
2023-02-20T18:29:04.460Z,7.72
2023-02-20T18:31:34.374Z,6.20
2023-02-20T18:34:06.759Z,6.53
2023-02-20T18:36:37.838Z,5.80
2023-02-20T18:39:09.858Z,5.10
2023-02-20T18:41:40.223Z,4.50
2023-02-20T18:44:11.564Z,7.10
2023-02-20T18:46:41.992Z,5.03
2023-02-20T18:49:14.765Z,3.75
2023-02-20T18:51:46.085Z,3.20
2023-02-20T18:54:20.741Z,4.22
2023-02-20T18:56:51.493Z,4.88
2023-02-20T18:59:22.995Z,6.53
2023-02-20T19:01:52.967Z,6.07
2023-02-20T19:04:25.635Z,5.93
2023-02-20T19:06:55.453Z,5.88
2023-02-20T19:09:27.108Z,6.90
2023-02-20T19:11:58.448Z,6.40
2023-02-20T19:14:29.466Z,6.45
2023-02-20T19:17:01.483Z,5.88
2023-02-20T19:19:34.542Z,5.93
2023-02-20T19:22:04.415Z,5.95
2023-02-20T19:24:34.136Z,5.60
2023-02-20T19:27:03.978Z,6.07
2023-02-20T19:29:33.806Z,6.22
2023-02-20T19:32:03.608Z,5.38
2023-02-20T19:34:35.939Z,6.22
2023-02-20T19:37:06.316Z,5.68
2023-02-20T19:39:36.277Z,7.72
2023-02-20T19:42:07.034Z,6.68
2023-02-20T19:44:37.146Z,6.53
2023-02-20T19:47:07.085Z,6.75
2023-02-20T19:49:39.871Z,6.60
2023-02-20T19:52:09.666Z,7.00
2023-02-20T19:54:40.008Z,7.13
2023-02-20T19:57:09.964Z,7.38
2023-02-20T19:59:39.737Z,7.82
2023-02-20T20:02:10.584Z,6.68
2023-02-20T20:04:43.484Z,6.78
2023-02-20T20:07:14.080Z,6.00
2023-02-20T20:09:46.173Z,5.65
2023-02-20T20:12:28.526Z,5.32
2023-02-20T20:14:59.092Z,5.00
2023-02-20T20:17:29.623Z,5.25
2023-02-20T20:20:02.092Z,4.55
2023-02-20T20:22:32.380Z,4.40
2023-02-20T20:25:02.442Z,4.35
2023-02-20T20:27:32.200Z,5.10
2023-02-20T20:30:01.933Z,4.82
2023-02-20T20:32:31.674Z,4.82
2023-02-20T20:35:04.534Z,4.22
2023-02-20T20:37:34.314Z,4.40
2023-02-20T20:40:06.954Z,4.50
2023-02-20T20:42:43.795Z,4.22
2023-02-20T20:45:15.409Z,4.32
2023-02-20T20:47:48.363Z,4.35
2023-02-20T20:50:22.212Z,3.25
2023-02-20T20:52:52.193Z,4.07
2023-02-20T20:55:22.134Z,3.65
2023-02-20T20:57:51.925Z,3.95
2023-02-20T21:00:24.312Z,4.45
2023-02-20T21:02:54.752Z,4.35
2023-02-20T21:05:30.218Z,4.28
2023-02-20T21:08:00.184Z,3.22
2023-02-20T21:10:30.314Z,3.90
2023-02-20T21:13:01.283Z,4.15
2023-02-20T21:15:32.211Z,4.50
2023-02-20T21:18:02.564Z,4.03
2023-02-20T21:20:36.081Z,4.00
2023-02-20T21:23:09.255Z,4.10
2023-02-20T21:25:39.415Z,4.20
2023-02-20T21:28:09.194Z,5.20
2023-02-20T21:30:39.011Z,4.85
2023-02-20T21:33:09.149Z,5.07
2023-02-20T21:35:41.636Z,4.75
2023-02-20T21:38:11.522Z,4.53
2023-02-20T21:40:41.455Z,4.93
2023-02-20T21:43:25.128Z,4.50
2023-02-20T21:45:55.040Z,4.78
2023-02-20T21:48:24.921Z,5.03
2023-02-20T21:50:57.328Z,5.53
2023-02-20T21:53:27.046Z,5.82
2023-02-20T21:55:56.780Z,5.03
2023-02-20T21:58:38.835Z,4.93
2023-02-20T22:01:05.927Z,5.43
2023-02-20T22:03:32.962Z,5.97
2023-02-20T22:06:02.522Z,6.03
2023-02-20T22:08:44.754Z,5.82
2023-02-20T22:11:27.018Z,5.63
2023-02-20T22:14:09.275Z,6.28
2023-02-20T22:16:51.486Z,6.38
2023-02-20T22:19:33.702Z,5.35
2023-02-20T22:22:18.678Z,5.47
2023-02-20T22:27:43.008Z,5.63
2023-02-20T22:30:26.593Z,5.93
2023-02-20T22:33:08.931Z,5.03
2023-02-20T22:35:51.197Z,4.78
2023-02-20T22:38:35.975Z,5.22
2023-02-20T22:44:00.481Z,4.80
2023-02-20T22:46:42.825Z,5.40
2023-02-20T22:49:25.126Z,5.05
2023-02-20T22:52:07.450Z,5.10
2023-02-20T22:55:03.932Z,5.07
2023-02-20T22:57:47.171Z,4.82
2023-02-20T23:00:30.191Z,4.88
2023-02-20T23:03:12.630Z,4.43
2023-02-20T23:05:56.107Z,4.85
2023-02-20T23:08:39.510Z,5.15
2023-02-20T23:11:24.342Z,4.60
2023-02-20T23:16:48.678Z,4.32
2023-02-20T23:19:30.955Z,4.47
2023-02-20T23:22:13.159Z,4.20
2023-02-20T23:24:55.443Z,4.30
2023-02-20T23:27:40.238Z,4.40
2023-02-20T23:30:24.176Z,4.47
2023-02-20T23:33:06.421Z,4.97
2023-02-20T23:35:48.647Z,4.75
2023-02-20T23:38:30.986Z,4.40
2023-02-20T23:41:13.522Z,4.40
2023-02-20T23:43:58.642Z,4.57
2023-02-20T23:49:23.075Z,6.40
2023-02-20T23:52:14.823Z,5.85
2023-02-20T23:54:58.758Z,5.55
2023-02-20T23:57:41.044Z,5.88
